sensor_id;sensor_type;location;lat;lon;timestamp;pressure;altitude;pressure_sealevel;temperature;humidity
55424;BME280;41294;42.666;23.350;2023-01-28T00:02:05;94407.28;;;2.12;96.84
55424;BME280;41294;42.666;23.350;2023-01-28T00:04:31;94408.00;;;2.13;97.19
55424;BME280;41294;42.666;23.350;2023-01-28T00:06:57;94414.84;;;2.26;96.93
55424;BME280;41294;42.666;23.350;2023-01-28T00:09:23;94420.56;;;2.18;96.61
55424;BME280;41294;42.666;23.350;2023-01-28T00:11:48;94424.56;;;2.22;96.71
55424;BME280;41294;42.666;23.350;2023-01-28T00:14:14;94425.69;;;2.21;96.24
55424;BME280;41294;42.666;23.350;2023-01-28T00:16:42;94430.69;;;2.32;95.84
55424;BME280;41294;42.666;23.350;2023-01-28T00:19:11;94428.63;;;2.23;95.63
55424;BME280;41294;42.666;23.350;2023-01-28T00:21:43;94431.03;;;2.11;97.04
55424;BME280;41294;42.666;23.350;2023-01-28T00:24:08;94433.38;;;2.05;96.67
55424;BME280;41294;42.666;23.350;2023-01-28T00:26:34;94431.25;;;1.97;97.53
55424;BME280;41294;42.666;23.350;2023-01-28T00:29:00;94428.50;;;2.07;96.35
55424;BME280;41294;42.666;23.350;2023-01-28T00:31:29;94430.31;;;2.10;96.25
55424;BME280;41294;42.666;23.350;2023-01-28T00:33:55;94430.47;;;2.00;97.48
55424;BME280;41294;42.666;23.350;2023-01-28T00:36:23;94444.06;;;2.07;96.98
55424;BME280;41294;42.666;23.350;2023-01-28T00:38:50;94440.81;;;2.03;96.66
55424;BME280;41294;42.666;23.350;2023-01-28T00:41:17;94446.56;;;2.14;96.53
55424;BME280;41294;42.666;23.350;2023-01-28T00:43:43;94442.72;;;2.22;96.42
55424;BME280;41294;42.666;23.350;2023-01-28T00:46:10;94445.41;;;2.15;96.09
55424;BME280;41294;42.666;23.350;2023-01-28T00:48:37;94450.00;;;2.31;95.80
55424;BME280;41294;42.666;23.350;2023-01-28T00:51:03;94452.34;;;2.22;95.72
55424;BME280;41294;42.666;23.350;2023-01-28T00:53:30;94446.09;;;2.19;95.44
55424;BME280;41294;42.666;23.350;2023-01-28T00:55:55;94447.91;;;2.22;95.53
55424;BME280;41294;42.666;23.350;2023-01-28T00:58:20;94446.78;;;2.23;95.63
55424;BME280;41294;42.666;23.350;2023-01-28T01:00:48;94453.09;;;2.22;95.83
55424;BME280;41294;42.666;23.350;2023-01-28T01:03:15;94451.56;;;2.25;95.47
55424;BME280;41294;42.666;23.350;2023-01-28T01:05:41;94448.63;;;2.23;95.99
55424;BME280;41294;42.666;23.350;2023-01-28T01:08:06;94446.88;;;2.16;96.34
55424;BME280;41294;42.666;23.350;2023-01-28T01:10:32;94444.84;;;2.27;95.67
55424;BME280;41294;42.666;23.350;2023-01-28T01:12:58;94448.56;;;2.26;95.13
55424;BME280;41294;42.666;23.350;2023-01-28T01:15:24;94447.84;;;2.26;95.31
55424;BME280;41294;42.666;23.350;2023-01-28T01:17:49;94450.56;;;2.19;95.71
55424;BME280;41294;42.666;23.350;2023-01-28T01:20:21;94446.34;;;2.05;96.27
55424;BME280;41294;42.666;23.350;2023-01-28T01:22:47;94456.25;;;2.10;96.37
55424;BME280;41294;42.666;23.350;2023-01-28T01:25:14;94448.88;;;2.09;96.47
55424;BME280;41294;42.666;23.350;2023-01-28T01:27:40;94459.88;;;2.16;95.75
55424;BME280;41294;42.666;23.350;2023-01-28T01:30:07;94451.47;;;2.09;96.33
55424;BME280;41294;42.666;23.350;2023-01-28T01:32:34;94448.06;;;2.12;95.43
55424;BME280;41294;42.666;23.350;2023-01-28T01:35:00;94459.25;;;2.09;95.70
55424;BME280;41294;42.666;23.350;2023-01-28T01:37:26;94458.91;;;2.07;96.09
55424;BME280;41294;42.666;23.350;2023-01-28T01:39:52;94458.03;;;1.90;96.45
55424;BME280;41294;42.666;23.350;2023-01-28T01:42:18;94460.16;;;1.99;97.36
55424;BME280;41294;42.666;23.350;2023-01-28T01:45:11;94463.34;;;2.06;96.71
55424;BME280;41294;42.666;23.350;2023-01-28T01:47:47;94459.63;;;2.07;95.98
55424;BME280;41294;42.666;23.350;2023-01-28T01:52:51;94462.22;;;2.07;95.95
55424;BME280;41294;42.666;23.350;2023-01-28T01:55:19;94461.75;;;1.89;97.14
55424;BME280;41294;42.666;23.350;2023-01-28T01:57:46;94453.19;;;1.92;97.47
55424;BME280;41294;42.666;23.350;2023-01-28T02:00:13;94465.34;;;1.99;97.43
55424;BME280;41294;42.666;23.350;2023-01-28T02:02:42;94465.41;;;1.95;97.10
55424;BME280;41294;42.666;23.350;2023-01-28T02:05:10;94469.84;;;1.95;97.45
55424;BME280;41294;42.666;23.350;2023-01-28T02:07:36;94466.22;;;1.89;97.80
55424;BME280;41294;42.666;23.350;2023-01-28T02:10:03;94471.66;;;1.98;97.05
55424;BME280;41294;42.666;23.350;2023-01-28T02:12:33;94469.22;;;1.87;96.99
55424;BME280;41294;42.666;23.350;2023-01-28T02:15:12;94475.06;;;1.91;97.60
55424;BME280;41294;42.666;23.350;2023-01-28T02:17:39;94473.53;;;1.97;97.45
55424;BME280;41294;42.666;23.350;2023-01-28T02:20:15;94472.09;;;1.93;97.08
55424;BME280;41294;42.666;23.350;2023-01-28T02:26:13;94473.28;;;1.88;98.04
55424;BME280;41294;42.666;23.350;2023-01-28T02:34:45;94472.78;;;1.97;96.68
55424;BME280;41294;42.666;23.350;2023-01-28T02:37:24;94471.25;;;1.99;96.41
55424;BME280;41294;42.666;23.350;2023-01-28T02:39:55;94478.25;;;2.02;96.13
55424;BME280;41294;42.666;23.350;2023-01-28T02:42:28;94483.56;;;1.95;96.62
55424;BME280;41294;42.666;23.350;2023-01-28T02:44:55;94484.69;;;1.94;96.77
55424;BME280;41294;42.666;23.350;2023-01-28T02:47:21;94486.16;;;1.95;96.65
55424;BME280;41294;42.666;23.350;2023-01-28T02:50:10;94476.56;;;1.92;96.85
55424;BME280;41294;42.666;23.350;2023-01-28T02:52:52;94475.31;;;2.00;95.75
55424;BME280;41294;42.666;23.350;2023-01-28T02:55:50;94477.31;;;1.89;96.36
55424;BME280;41294;42.666;23.350;2023-01-28T03:04:06;94484.91;;;2.03;95.17
55424;BME280;41294;42.666;23.350;2023-01-28T03:06:38;94482.44;;;1.96;95.61
55424;BME280;41294;42.666;23.350;2023-01-28T03:09:07;94486.16;;;1.95;96.04
55424;BME280;41294;42.666;23.350;2023-01-28T03:12:17;94481.38;;;1.90;95.82
55424;BME280;41294;42.666;23.350;2023-01-28T03:15:03;94487.28;;;1.94;95.82
55424;BME280;41294;42.666;23.350;2023-01-28T03:21:30;94489.53;;;1.92;94.95
55424;BME280;41294;42.666;23.350;2023-01-28T03:24:34;94494.31;;;1.94;95.11
55424;BME280;41294;42.666;23.350;2023-01-28T03:27:27;94490.53;;;1.98;94.94
55424;BME280;41294;42.666;23.350;2023-01-28T03:30:24;94492.88;;;1.93;95.68
55424;BME280;41294;42.666;23.350;2023-01-28T03:33:10;94497.34;;;1.89;96.19
55424;BME280;41294;42.666;23.350;2023-01-28T03:35:55;94491.81;;;1.87;96.25
55424;BME280;41294;42.666;23.350;2023-01-28T03:38:40;94501.44;;;1.90;95.81
55424;BME280;41294;42.666;23.350;2023-01-28T03:41:09;94501.03;;;1.91;95.60
55424;BME280;41294;42.666;23.350;2023-01-28T03:43:35;94503.19;;;1.96;94.86
55424;BME280;41294;42.666;23.350;2023-01-28T03:46:02;94500.69;;;1.89;95.24
55424;BME280;41294;42.666;23.350;2023-01-28T03:48:28;94504.44;;;1.85;95.97
55424;BME280;41294;42.666;23.350;2023-01-28T03:50:54;94503.56;;;1.95;94.92
55424;BME280;41294;42.666;23.350;2023-01-28T03:53:21;94500.66;;;1.93;94.70
55424;BME280;41294;42.666;23.350;2023-01-28T03:55:49;94512.19;;;1.88;95.22
55424;BME280;41294;42.666;23.350;2023-01-28T03:58:16;94503.78;;;1.81;95.30
55424;BME280;41294;42.666;23.350;2023-01-28T04:00:42;94513.06;;;1.78;95.46
55424;BME280;41294;42.666;23.350;2023-01-28T04:03:08;94508.66;;;1.75;96.26
55424;BME280;41294;42.666;23.350;2023-01-28T04:05:57;94505.38;;;1.71;96.26
55424;BME280;41294;42.666;23.350;2023-01-28T04:08:23;94513.13;;;1.75;96.21
55424;BME280;41294;42.666;23.350;2023-01-28T04:10:49;94510.47;;;1.78;95.87
55424;BME280;41294;42.666;23.350;2023-01-28T04:13:14;94515.22;;;1.83;95.77
55424;BME280;41294;42.666;23.350;2023-01-28T04:15:41;94514.88;;;1.81;96.10
55424;BME280;41294;42.666;23.350;2023-01-28T04:18:07;94508.47;;;1.89;95.68
55424;BME280;41294;42.666;23.350;2023-01-28T04:20:33;94521.19;;;1.80;95.75
55424;BME280;41294;42.666;23.350;2023-01-28T04:22:59;94524.94;;;1.76;95.61
55424;BME280;41294;42.666;23.350;2023-01-28T04:25:24;94527.16;;;1.77;95.95
55424;BME280;41294;42.666;23.350;2023-01-28T04:27:50;94530.13;;;1.76;95.35
55424;BME280;41294;42.666;23.350;2023-01-28T04:30:15;94533.88;;;1.75;95.83
55424;BME280;41294;42.666;23.350;2023-01-28T04:32:41;94538.91;;;1.85;94.76
55424;BME280;41294;42.666;23.350;2023-01-28T04:35:06;94530.19;;;1.72;95.47
55424;BME280;41294;42.666;23.350;2023-01-28T04:37:32;94538.31;;;1.74;95.80
55424;BME280;41294;42.666;23.350;2023-01-28T04:39:57;94541.31;;;1.73;96.10
55424;BME280;41294;42.666;23.350;2023-01-28T04:42:22;94536.47;;;1.75;96.07
55424;BME280;41294;42.666;23.350;2023-01-28T04:44:48;94542.72;;;1.77;95.65
55424;BME280;41294;42.666;23.350;2023-01-28T04:47:13;94551.63;;;1.76;96.46
55424;BME280;41294;42.666;23.350;2023-01-28T04:49:39;94548.44;;;1.65;96.89
55424;BME280;41294;42.666;23.350;2023-01-28T04:52:04;94555.19;;;1.60;97.46
55424;BME280;41294;42.666;23.350;2023-01-28T04:54:30;94554.75;;;1.64;97.80
55424;BME280;41294;42.666;23.350;2023-01-28T04:56:55;94563.69;;;1.60;98.05
55424;BME280;41294;42.666;23.350;2023-01-28T04:59:20;94553.97;;;1.67;97.38
55424;BME280;41294;42.666;23.350;2023-01-28T05:01:48;94566.19;;;1.67;98.24
55424;BME280;41294;42.666;23.350;2023-01-28T05:04:13;94568.75;;;1.70;97.61
55424;BME280;41294;42.666;23.350;2023-01-28T05:06:39;94561.31;;;1.72;97.63
55424;BME280;41294;42.666;23.350;2023-01-28T05:09:04;94571.00;;;1.68;98.44
55424;BME280;41294;42.666;23.350;2023-01-28T05:11:30;94573.34;;;1.60;98.15
55424;BME280;41294;42.666;23.350;2023-01-28T05:13:55;94573.38;;;1.56;98.95
55424;BME280;41294;42.666;23.350;2023-01-28T05:16:21;94580.69;;;1.64;98.98
55424;BME280;41294;42.666;23.350;2023-01-28T05:18:46;94586.97;;;1.63;97.53
55424;BME280;41294;42.666;23.350;2023-01-28T05:21:12;94585.19;;;1.61;97.94
55424;BME280;41294;42.666;23.350;2023-01-28T05:23:38;94576.34;;;1.55;98.37
55424;BME280;41294;42.666;23.350;2023-01-28T05:26:03;94588.09;;;1.62;98.23
55424;BME280;41294;42.666;23.350;2023-01-28T05:28:29;94589.16;;;1.68;98.06
55424;BME280;41294;42.666;23.350;2023-01-28T05:30:54;94581.44;;;1.65;97.13
55424;BME280;41294;42.666;23.350;2023-01-28T05:33:20;94597.28;;;1.70;97.90
55424;BME280;41294;42.666;23.350;2023-01-28T05:35:46;94590.97;;;1.71;96.68
55424;BME280;41294;42.666;23.350;2023-01-28T05:38:11;94595.03;;;1.72;96.29
55424;BME280;41294;42.666;23.350;2023-01-28T05:40:37;94596.16;;;1.71;96.23
55424;BME280;41294;42.666;23.350;2023-01-28T05:43:02;94596.84;;;1.75;96.05
55424;BME280;41294;42.666;23.350;2023-01-28T05:45:27;94595.72;;;1.76;95.66
55424;BME280;41294;42.666;23.350;2023-01-28T05:47:53;94594.25;;;1.75;95.37
55424;BME280;41294;42.666;23.350;2023-01-28T05:50:18;94598.41;;;1.69;95.36
55424;BME280;41294;42.666;23.350;2023-01-28T05:52:44;94596.19;;;1.68;95.09
55424;BME280;41294;42.666;23.350;2023-01-28T05:55:09;94597.72;;;1.65;95.11
55424;BME280;41294;42.666;23.350;2023-01-28T05:57:38;94595.97;;;1.56;95.70
55424;BME280;41294;42.666;23.350;2023-01-28T06:00:04;94602.91;;;1.65;96.24
55424;BME280;41294;42.666;23.350;2023-01-28T06:02:30;94612.19;;;1.63;95.19
55424;BME280;41294;42.666;23.350;2023-01-28T06:04:58;94608.88;;;1.59;96.02
55424;BME280;41294;42.666;23.350;2023-01-28T06:07:25;94620.38;;;1.62;95.48
55424;BME280;41294;42.666;23.350;2023-01-28T06:09:51;94622.25;;;1.58;95.71
55424;BME280;41294;42.666;23.350;2023-01-28T06:12:19;94626.72;;;1.57;95.66
55424;BME280;41294;42.666;23.350;2023-01-28T06:14:45;94628.16;;;1.62;95.39
55424;BME280;41294;42.666;23.350;2023-01-28T06:17:10;94639.28;;;1.59;95.55
55424;BME280;41294;42.666;23.350;2023-01-28T06:19:35;94639.56;;;1.67;95.25
55424;BME280;41294;42.666;23.350;2023-01-28T06:22:01;94636.22;;;1.67;95.52
55424;BME280;41294;42.666;23.350;2023-01-28T06:24:26;94641.22;;;1.84;94.65
55424;BME280;41294;42.666;23.350;2023-01-28T06:26:52;94644.34;;;1.69;95.04
55424;BME280;41294;42.666;23.350;2023-01-28T06:29:17;94653.34;;;1.61;95.45
55424;BME280;41294;42.666;23.350;2023-01-28T06:31:42;94658.53;;;1.61;95.58
55424;BME280;41294;42.666;23.350;2023-01-28T06:34:09;94653.25;;;1.68;95.48
55424;BME280;41294;42.666;23.350;2023-01-28T06:36:35;94662.19;;;1.63;94.91
55424;BME280;41294;42.666;23.350;2023-01-28T06:39:02;94662.97;;;1.61;95.64
55424;BME280;41294;42.666;23.350;2023-01-28T06:41:28;94660.63;;;1.73;94.87
55424;BME280;41294;42.666;23.350;2023-01-28T06:43:53;94668.84;;;1.64;94.90
55424;BME280;41294;42.666;23.350;2023-01-28T06:46:19;94677.00;;;1.66;95.30
55424;BME280;41294;42.666;23.350;2023-01-28T06:48:44;94678.81;;;1.69;95.27
55424;BME280;41294;42.666;23.350;2023-01-28T06:51:10;94681.75;;;1.71;95.49
55424;BME280;41294;42.666;23.350;2023-01-28T06:53:35;94679.13;;;1.75;94.83
55424;BME280;41294;42.666;23.350;2023-01-28T06:56:00;94686.25;;;1.67;94.67
55424;BME280;41294;42.666;23.350;2023-01-28T06:58:26;94686.28;;;1.64;95.14
55424;BME280;41294;42.666;23.350;2023-01-28T07:00:52;94687.72;;;1.68;94.90
55424;BME280;41294;42.666;23.350;2023-01-28T07:03:17;94693.28;;;1.67;94.64
55424;BME280;41294;42.666;23.350;2023-01-28T07:05:43;94694.03;;;1.67;94.59
55424;BME280;41294;42.666;23.350;2023-01-28T07:08:08;94695.41;;;1.75;94.66
55424;BME280;41294;42.666;23.350;2023-01-28T07:10:33;94703.00;;;1.60;94.67
55424;BME280;41294;42.666;23.350;2023-01-28T07:12:59;94702.88;;;1.70;95.33
55424;BME280;41294;42.666;23.350;2023-01-28T07:15:24;94703.66;;;1.67;95.13
55424;BME280;41294;42.666;23.350;2023-01-28T07:17:50;94711.81;;;1.65;95.19
55424;BME280;41294;42.666;23.350;2023-01-28T07:20:16;94715.78;;;1.77;95.41
55424;BME280;41294;42.666;23.350;2023-01-28T07:22:42;94722.78;;;1.80;94.52
55424;BME280;41294;42.666;23.350;2023-01-28T07:25:09;94719.81;;;1.81;94.05
55424;BME280;41294;42.666;23.350;2023-01-28T07:27:35;94726.13;;;1.80;94.46
55424;BME280;41294;42.666;23.350;2023-01-28T07:30:00;94730.47;;;1.90;94.19
55424;BME280;41294;42.666;23.350;2023-01-28T07:32:26;94730.78;;;1.96;94.25
55424;BME280;41294;42.666;23.350;2023-01-28T07:34:53;94729.31;;;1.95;94.26
55424;BME280;41294;42.666;23.350;2023-01-28T07:37:19;94738.28;;;1.87;94.24
55424;BME280;41294;42.666;23.350;2023-01-28T07:39:45;94738.88;;;2.01;94.51
55424;BME280;41294;42.666;23.350;2023-01-28T07:42:10;94739.50;;;2.12;93.89
55424;BME280;41294;42.666;23.350;2023-01-28T07:44:35;94741.59;;;1.91;94.27
55424;BME280;41294;42.666;23.350;2023-01-28T07:47:02;94742.88;;;2.09;93.74
55424;BME280;41294;42.666;23.350;2023-01-28T07:49:27;94743.91;;;2.15;93.36
55424;BME280;41294;42.666;23.350;2023-01-28T07:51:53;94744.69;;;2.12;92.24
55424;BME280;41294;42.666;23.350;2023-01-28T07:54:18;94750.56;;;2.16;93.34
55424;BME280;41294;42.666;23.350;2023-01-28T07:56:44;94749.00;;;2.26;92.19
55424;BME280;41294;42.666;23.350;2023-01-28T07:59:09;94750.25;;;2.14;92.63
55424;BME280;41294;42.666;23.350;2023-01-28T08:01:35;94750.19;;;2.18;91.49
55424;BME280;41294;42.666;23.350;2023-01-28T08:04:00;94748.72;;;2.17;91.71
55424;BME280;41294;42.666;23.350;2023-01-28T08:06:30;94756.59;;;2.06;91.96
55424;BME280;41294;42.666;23.350;2023-01-28T08:08:55;94753.59;;;2.11;92.33
55424;BME280;41294;42.666;23.350;2023-01-28T08:11:21;94754.22;;;2.22;91.76
55424;BME280;41294;42.666;23.350;2023-01-28T08:13:47;94767.66;;;2.14;92.46
55424;BME280;41294;42.666;23.350;2023-01-28T08:16:13;94762.06;;;2.19;92.30
55424;BME280;41294;42.666;23.350;2023-01-28T08:18:39;94770.53;;;2.23;92.19
55424;BME280;41294;42.666;23.350;2023-01-28T08:21:04;94772.72;;;2.28;92.12
55424;BME280;41294;42.666;23.350;2023-01-28T08:23:30;94772.75;;;2.21;91.28
55424;BME280;41294;42.666;23.350;2023-01-28T08:25:59;94777.19;;;2.24;91.45
55424;BME280;41294;42.666;23.350;2023-01-28T08:28:24;94773.47;;;2.25;90.99
55424;BME280;41294;42.666;23.350;2023-01-28T08:30:50;94771.97;;;2.27;91.47
55424;BME280;41294;42.666;23.350;2023-01-28T08:33:16;94770.53;;;2.23;91.27
55424;BME280;41294;42.666;23.350;2023-01-28T08:35:42;94764.47;;;2.33;90.86
55424;BME280;41294;42.666;23.350;2023-01-28T08:38:09;94763.09;;;2.25;91.49
55424;BME280;41294;42.666;23.350;2023-01-28T08:40:35;94764.44;;;2.36;91.39
55424;BME280;41294;42.666;23.350;2023-01-28T08:43:01;94768.16;;;2.35;90.41
55424;BME280;41294;42.666;23.350;2023-01-28T08:45:27;94771.03;;;2.44;89.42
55424;BME280;41294;42.666;23.350;2023-01-28T08:48:05;94764.09;;;2.64;89.11
55424;BME280;41294;42.666;23.350;2023-01-28T08:50:33;94761.41;;;2.71;88.56
55424;BME280;41294;42.666;23.350;2023-01-28T08:53:02;94766.34;;;2.62;89.03
55424;BME280;41294;42.666;23.350;2023-01-28T08:55:28;94763.59;;;2.76;88.35
55424;BME280;41294;42.666;23.350;2023-01-28T08:57:54;94776.47;;;2.83;88.05
55424;BME280;41294;42.666;23.350;2023-01-28T09:00:20;94768.59;;;2.90;87.34
55424;BME280;41294;42.666;23.350;2023-01-28T09:02:46;94780.34;;;2.98;87.39
55424;BME280;41294;42.666;23.350;2023-01-28T09:05:11;94783.69;;;2.98;86.63
55424;BME280;41294;42.666;23.350;2023-01-28T09:07:37;94769.84;;;3.05;85.84
55424;BME280;41294;42.666;23.350;2023-01-28T09:10:04;94773.69;;;2.97;85.99
55424;BME280;41294;42.666;23.350;2023-01-28T09:12:30;94772.66;;;2.91;85.07
55424;BME280;41294;42.666;23.350;2023-01-28T09:14:56;94777.41;;;3.22;84.89
55424;BME280;41294;42.666;23.350;2023-01-28T09:17:22;94771.38;;;3.28;85.14
55424;BME280;41294;42.666;23.350;2023-01-28T09:19:48;94773.06;;;3.38;85.03
55424;BME280;41294;42.666;23.350;2023-01-28T09:22:13;94775.88;;;3.47;85.03
55424;BME280;41294;42.666;23.350;2023-01-28T09:24:39;94775.66;;;3.38;84.84
55424;BME280;41294;42.666;23.350;2023-01-28T09:27:04;94777.72;;;3.50;84.83
55424;BME280;41294;42.666;23.350;2023-01-28T09:29:34;94773.75;;;3.65;84.17
55424;BME280;41294;42.666;23.350;2023-01-28T09:32:00;94769.84;;;3.54;84.85
55424;BME280;41294;42.666;23.350;2023-01-28T09:34:26;94772.81;;;3.29;85.44
55424;BME280;41294;42.666;23.350;2023-01-28T09:36:51;94776.34;;;3.20;86.13
55424;BME280;41294;42.666;23.350;2023-01-28T09:39:17;94774.03;;;3.48;85.64
55424;BME280;41294;42.666;23.350;2023-01-28T09:50:11;94768.56;;;3.42;85.90
55424;BME280;41294;42.666;23.350;2023-01-28T09:52:39;94770.38;;;3.45;86.24
55424;BME280;41294;42.666;23.350;2023-01-28T09:55:16;94773.47;;;3.37;85.83
55424;BME280;41294;42.666;23.350;2023-01-28T09:57:52;94770.69;;;3.24;86.02
55424;BME280;41294;42.666;23.350;2023-01-28T10:17:25;94755.88;;;3.67;84.83
55424;BME280;41294;42.666;23.350;2023-01-28T10:19:57;94758.16;;;3.42;85.28
55424;BME280;41294;42.666;23.350;2023-01-28T10:22:29;94759.59;;;3.21;86.15
55424;BME280;41294;42.666;23.350;2023-01-28T10:24:59;94770.78;;;2.91;87.20
55424;BME280;41294;42.666;23.350;2023-01-28T10:27:30;94756.06;;;3.08;87.94
55424;BME280;41294;42.666;23.350;2023-01-28T10:29:57;94776.09;;;3.11;87.45
55424;BME280;41294;42.666;23.350;2023-01-28T10:34:55;94766.78;;;3.36;87.53
55424;BME280;41294;42.666;23.350;2023-01-28T10:37:24;94763.56;;;3.51;86.59
55424;BME280;41294;42.666;23.350;2023-01-28T10:39:51;94763.13;;;3.56;86.02
55424;BME280;41294;42.666;23.350;2023-01-28T10:42:34;94769.66;;;3.64;85.70
55424;BME280;41294;42.666;23.350;2023-01-28T10:48:02;94758.63;;;3.80;84.70
55424;BME280;41294;42.666;23.350;2023-01-28T10:50:31;94761.28;;;3.99;84.16
55424;BME280;41294;42.666;23.350;2023-01-28T10:55:23;94759.47;;;3.96;84.12
55424;BME280;41294;42.666;23.350;2023-01-28T10:57:50;94757.06;;;3.86;84.41
55424;BME280;41294;42.666;23.350;2023-01-28T11:00:25;94759.91;;;3.91;84.28
55424;BME280;41294;42.666;23.350;2023-01-28T11:02:52;94755.75;;;3.97;83.58
55424;BME280;41294;42.666;23.350;2023-01-28T11:05:21;94752.38;;;3.97;83.94
55424;BME280;41294;42.666;23.350;2023-01-28T11:07:47;94753.47;;;3.99;82.69
55424;BME280;41294;42.666;23.350;2023-01-28T11:12:55;94759.91;;;3.91;83.21
55424;BME280;41294;42.666;23.350;2023-01-28T11:15:20;94763.53;;;3.97;81.96
55424;BME280;41294;42.666;23.350;2023-01-28T11:17:47;94757.31;;;3.91;82.88
55424;BME280;41294;42.666;23.350;2023-01-28T11:20:20;94752.78;;;3.95;82.19
55424;BME280;41294;42.666;23.350;2023-01-28T11:22:47;94753.28;;;3.90;82.08
55424;BME280;41294;42.666;23.350;2023-01-28T11:25:18;94752.03;;;3.75;82.22
55424;BME280;41294;42.666;23.350;2023-01-28T11:27:51;94752.84;;;3.92;81.65
55424;BME280;41294;42.666;23.350;2023-01-28T11:30:27;94752.22;;;3.84;81.45
55424;BME280;41294;42.666;23.350;2023-01-28T11:33:02;94748.63;;;3.78;82.17
55424;BME280;41294;42.666;23.350;2023-01-28T11:35:30;94746.84;;;3.52;83.34
55424;BME280;41294;42.666;23.350;2023-01-28T11:38:00;94748.09;;;3.44;83.17
55424;BME280;41294;42.666;23.350;2023-01-28T11:40:26;94751.22;;;3.78;82.33
55424;BME280;41294;42.666;23.350;2023-01-28T11:42:53;94748.06;;;3.90;81.97
55424;BME280;41294;42.666;23.350;2023-01-28T11:50:48;94742.94;;;4.06;81.81
55424;BME280;41294;42.666;23.350;2023-01-28T11:53:53;94750.88;;;3.99;80.39
55424;BME280;41294;42.666;23.350;2023-01-28T11:56:37;94740.78;;;4.01;79.35
55424;BME280;41294;42.666;23.350;2023-01-28T12:07:48;94746.19;;;4.10;78.88
55424;BME280;41294;42.666;23.350;2023-01-28T12:10:22;94753.00;;;4.04;78.97
55424;BME280;41294;42.666;23.350;2023-01-28T12:15:38;94749.94;;;4.09;78.26
55424;BME280;41294;42.666;23.350;2023-01-28T12:20:45;94749.69;;;4.04;78.82
55424;BME280;41294;42.666;23.350;2023-01-28T12:26:15;94743.97;;;3.89;79.85
55424;BME280;41294;42.666;23.350;2023-01-28T12:31:30;94743.25;;;4.08;80.35
55424;BME280;41294;42.666;23.350;2023-01-28T12:42:20;94754.47;;;4.05;80.21
55424;BME280;41294;42.666;23.350;2023-01-28T12:44:50;94759.06;;;4.17;79.53
55424;BME280;41294;42.666;23.350;2023-01-28T12:47:25;94761.22;;;4.22;79.75
55424;BME280;41294;42.666;23.350;2023-01-28T12:49:58;94755.44;;;4.69;82.31
55424;BME280;41294;42.666;23.350;2023-01-28T12:52:31;94774.44;;;4.50;79.83
55424;BME280;41294;42.666;23.350;2023-01-28T12:55:19;94768.97;;;4.25;81.60
55424;BME280;41294;42.666;23.350;2023-01-28T12:57:47;94767.78;;;4.30;79.22
55424;BME280;41294;42.666;23.350;2023-01-28T13:00:33;94771.16;;;4.27;79.72
55424;BME280;41294;42.666;23.350;2023-01-28T13:05:42;94767.78;;;4.30;79.99
55424;BME280;41294;42.666;23.350;2023-01-28T13:08:14;94772.84;;;4.17;79.79
55424;BME280;41294;42.666;23.350;2023-01-28T13:10:45;94778.97;;;4.27;80.67
55424;BME280;41294;42.666;23.350;2023-01-28T13:13:38;94780.53;;;4.44;79.36
55424;BME280;41294;42.666;23.350;2023-01-28T13:16:07;94783.91;;;4.21;80.34
55424;BME280;41294;42.666;23.350;2023-01-28T13:18:44;94785.53;;;4.15;80.64
55424;BME280;41294;42.666;23.350;2023-01-28T13:23:49;94790.94;;;4.24;79.61
55424;BME280;41294;42.666;23.350;2023-01-28T13:28:47;94787.63;;;4.24;78.70
55424;BME280;41294;42.666;23.350;2023-01-28T13:31:16;94800.28;;;4.03;79.20
55424;BME280;41294;42.666;23.350;2023-01-28T13:33:46;94795.69;;;3.87;79.64
55424;BME280;41294;42.666;23.350;2023-01-28T13:36:28;94795.44;;;4.01;79.15
55424;BME280;41294;42.666;23.350;2023-01-28T13:39:21;94802.16;;;3.79;79.97
55424;BME280;41294;42.666;23.350;2023-01-28T13:41:53;94806.97;;;3.81;80.12
55424;BME280;41294;42.666;23.350;2023-01-28T13:44:31;94811.66;;;3.89;80.22
55424;BME280;41294;42.666;23.350;2023-01-28T13:52:04;94817.97;;;3.42;81.76
55424;BME280;41294;42.666;23.350;2023-01-28T13:54:34;94815.06;;;3.37;81.98
55424;BME280;41294;42.666;23.350;2023-01-28T14:06:28;94826.00;;;3.25;82.96
55424;BME280;41294;42.666;23.350;2023-01-28T14:13:41;94842.97;;;3.36;83.72
55424;BME280;41294;42.666;23.350;2023-01-28T14:18:59;94839.94;;;3.12;84.01
55424;BME280;41294;42.666;23.350;2023-01-28T14:21:27;94852.56;;;3.13;84.51
55424;BME280;41294;42.666;23.350;2023-01-28T14:23:56;94855.69;;;3.01;85.25
55424;BME280;41294;42.666;23.350;2023-01-28T14:27:00;94862.53;;;2.88;85.60
55424;BME280;41294;42.666;23.350;2023-01-28T14:32:15;94861.28;;;3.00;85.05
55424;BME280;41294;42.666;23.350;2023-01-28T14:34:42;94860.31;;;2.87;85.96
55424;BME280;41294;42.666;23.350;2023-01-28T14:37:12;94863.25;;;2.89;85.92
55424;BME280;41294;42.666;23.350;2023-01-28T14:42:22;94863.50;;;2.68;86.55
55424;BME280;41294;42.666;23.350;2023-01-28T14:45:03;94865.69;;;2.73;87.24
55424;BME280;41294;42.666;23.350;2023-01-28T14:50:18;94865.06;;;2.95;86.67
55424;BME280;41294;42.666;23.350;2023-01-28T14:53:01;94875.41;;;2.99;87.06
55424;BME280;41294;42.666;23.350;2023-01-28T14:58:00;94879.03;;;2.75;87.63
55424;BME280;41294;42.666;23.350;2023-01-28T15:00:30;94878.72;;;2.69;87.57
55424;BME280;41294;42.666;23.350;2023-01-28T15:02:56;94882.84;;;2.63;87.30
55424;BME280;41294;42.666;23.350;2023-01-28T15:05:25;94884.84;;;2.52;87.45
55424;BME280;41294;42.666;23.350;2023-01-28T15:07:50;94886.03;;;2.44;87.67
55424;BME280;41294;42.666;23.350;2023-01-28T15:10:20;94887.53;;;2.42;87.01
55424;BME280;41294;42.666;23.350;2023-01-28T15:12:57;94883.25;;;2.25;87.67
55424;BME280;41294;42.666;23.350;2023-01-28T15:15:36;94890.56;;;2.37;87.03
55424;BME280;41294;42.666;23.350;2023-01-28T15:18:06;94882.44;;;2.32;87.12
55424;BME280;41294;42.666;23.350;2023-01-28T15:20:34;94884.63;;;2.33;87.32
55424;BME280;41294;42.666;23.350;2023-01-28T15:23:01;94891.22;;;2.44;86.51